Time;durP1;ratioP1;P1;durP2;ratioP2;P2;SDS_P1;SDS_P2;PMS_P1;PMS_P2;Temp;Humidity;BMP_temperature;BMP_pressure;BME280_temperature;BME280_humidity;BME280_pressure;Samples;Min_cycle;Max_cycle;Signal;HPM_P1;HPM_P2
2022/12/25 00:01:20;;;;;;;3.73;1.67;;;11.20;99.90;;;;;;7385769;19;20488;-80
2022/12/25 00:03:46;;;;;;;1.87;1.40;;;11.10;99.90;;;;;;7387994;19;20210;-78
2022/12/25 00:06:12;;;;;;;3.53;2.20;;;11.10;99.90;;;;;;7387101;19;20868;-78
2022/12/25 00:08:39;;;;;;;3.90;1.83;;;11.30;99.90;;;;;;7385383;19;20586;-77
2022/12/25 00:11:07;;;;;;;2.80;1.40;;;11.10;99.90;;;;;;7395107;19;20163;-79
2022/12/25 00:13:33;;;;;;;2.80;1.97;;;11.10;99.90;;;;;;7395651;19;20142;-78
2022/12/25 00:16:03;;;;;;;1.80;1.60;;;10.90;99.90;;;;;;7396762;19;20173;-80
2022/12/25 00:18:29;;;;;;;4.20;1.97;;;11.10;99.90;;;;;;7396346;19;20134;-78
2022/12/25 00:20:59;;;;;;;3.93;1.67;;;11.30;99.90;;;;;;7393617;19;20131;-79
2022/12/25 00:23:25;;;;;;;1.90;1.70;;;11.40;99.90;;;;;;7395774;19;20141;-78
2022/12/25 00:25:52;;;;;;;2.60;1.63;;;11.30;99.90;;;;;;7395607;19;20149;-78
2022/12/25 00:28:19;;;;;;;3.20;1.40;;;11.00;99.90;;;;;;7400223;19;20226;-77
2022/12/25 00:30:45;;;;;;;3.07;1.53;;;11.10;99.90;;;;;;7395009;19;20150;-78
2022/12/25 00:33:10;;;;;;;4.10;1.53;;;11.20;99.90;;;;;;7393767;19;20481;-78
2022/12/25 00:35:36;;;;;;;3.90;1.70;;;11.20;99.90;;;;;;7395757;19;20142;-78
2022/12/25 00:38:02;;;;;;;2.60;1.40;;;11.20;99.90;;;;;;7395407;19;20135;-77
2022/12/25 00:40:28;;;;;;;2.73;1.87;;;11.10;99.90;;;;;;7390820;19;20146;-79
2022/12/25 00:42:53;;;;;;;3.23;1.87;;;10.80;99.90;;;;;;7394656;19;20134;-77
2022/12/25 00:45:19;;;;;;;3.23;1.73;;;11.00;99.90;;;;;;7394255;19;20167;-78
2022/12/25 00:47:45;;;;;;;2.97;1.50;;;11.10;99.90;;;;;;7395580;19;20198;-79
2022/12/25 00:50:11;;;;;;;2.50;1.40;;;11.40;99.90;;;;;;7394463;19;20153;-77
2022/12/25 00:52:36;;;;;;;2.83;1.83;;;11.40;99.90;;;;;;7394915;19;20131;-78
2022/12/25 00:55:03;;;;;;;2.73;1.60;;;11.50;99.90;;;;;;7394653;19;20607;-77
2022/12/25 00:57:28;;;;;;;1.53;1.27;;;11.60;99.90;;;;;;7396104;19;20585;-77
2022/12/25 00:59:54;;;;;;;3.30;1.83;;;11.60;99.90;;;;;;7394515;19;20130;-78
2022/12/25 01:02:23;;;;;;;3.43;1.57;;;11.60;99.90;;;;;;7394546;19;20139;-76
2022/12/25 01:04:55;;;;;;;1.87;1.40;;;11.60;99.90;;;;;;7390640;19;20222;-77
2022/12/25 01:07:22;;;;;;;2.27;1.20;;;11.60;99.90;;;;;;7393375;19;20130;-77
2022/12/25 01:12:36;;;;;;;3.17;1.63;;;11.70;99.90;;;;;;7392716;19;20599;-79
2022/12/25 01:15:03;;;;;;;4.70;1.57;;;11.70;99.90;;;;;;7394907;19;20134;-79
2022/12/25 01:17:29;;;;;;;3.30;1.50;;;11.70;99.90;;;;;;7391684;19;20169;-78
2022/12/25 01:19:55;;;;;;;2.67;1.50;;;11.20;99.90;;;;;;7392552;19;20134;-78
2022/12/25 01:22:21;;;;;;;2.60;2.20;;;11.50;99.90;;;;;;7394644;19;20131;-78
2022/12/25 01:24:46;;;;;;;3.63;2.37;;;11.50;99.90;;;;;;7383055;19;20643;-78
2022/12/25 01:27:12;;;;;;;5.83;2.77;;;11.40;99.90;;;;;;7387949;19;20250;-78
2022/12/25 01:29:38;;;;;;;4.07;2.60;;;11.50;99.90;;;;;;7393930;19;20135;-78
2022/12/25 01:32:04;;;;;;;3.53;2.40;;;11.40;99.90;;;;;;7392616;19;20215;-78
2022/12/25 01:34:30;;;;;;;3.93;2.40;;;11.50;99.90;;;;;;7391494;19;20150;-79
2022/12/25 01:36:56;;;;;;;5.67;3.00;;;11.40;99.90;;;;;;7390660;19;20171;-78
2022/12/25 01:39:22;;;;;;;4.33;2.47;;;11.50;99.90;;;;;;7394469;19;20145;-77
2022/12/25 01:41:48;;;;;;;5.20;3.10;;;11.50;99.90;;;;;;7395528;19;20139;-77
2022/12/25 01:44:13;;;;;;;5.20;3.50;;;11.50;99.90;;;;;;7390923;19;20150;-79
2022/12/25 01:46:40;;;;;;;3.97;3.00;;;11.50;99.90;;;;;;7391537;19;20613;-78
2022/12/25 01:49:15;;;;;;;5.00;3.00;;;11.50;99.90;;;;;;7395006;19;20586;-78
2022/12/25 01:51:45;;;;;;;7.00;3.47;;;11.40;99.90;;;;;;7393908;19;20141;-78
2022/12/25 01:54:21;;;;;;;5.97;3.97;;;11.30;99.90;;;;;;7390914;19;20645;-78
2022/12/25 01:56:49;;;;;;;3.80;2.87;;;11.10;99.90;;;;;;7392616;19;20599;-79
2022/12/25 01:59:17;;;;;;;4.70;2.87;;;11.00;99.90;;;;;;7392696;19;20153;-78
2022/12/25 02:01:43;;;;;;;6.23;3.40;;;11.20;99.90;;;;;;7392004;19;20146;-75
2022/12/25 02:04:37;;;;;;;4.97;2.90;;;11.30;99.90;;;;;;7391559;19;20155;-74
2022/12/25 02:07:09;;;;;;;6.20;2.93;;;11.00;99.90;;;;;;7388561;19;20142;-74
2022/12/25 02:09:36;;;;;;;5.50;2.63;;;11.20;99.90;;;;;;7390059;19;20594;-75
2022/12/25 02:12:03;;;;;;;5.73;2.80;;;11.20;99.90;;;;;;7392288;19;20135;-73
2022/12/25 02:14:31;;;;;;;4.00;2.60;;;11.30;99.90;;;;;;7392353;19;20221;-74
2022/12/25 02:17:12;;;;;;;2.13;1.93;;;11.10;99.90;;;;;;7391581;19;20153;-73
2022/12/25 02:20:02;;;;;;;3.67;2.00;;;11.10;99.90;;;;;;7392523;19;20131;-74
2022/12/25 02:22:38;;;;;;;3.73;2.37;;;11.30;99.90;;;;;;7391101;19;20206;-77
2022/12/25 02:25:18;;;;;;;6.33;2.63;;;11.40;99.90;;;;;;7390645;19;20162;-74
2022/12/25 02:27:56;;;;;;;2.60;1.90;;;11.50;99.90;;;;;;7389424;19;20134;-74
2022/12/25 02:30:22;;;;;;;3.07;2.07;;;11.40;99.90;;;;;;7391809;19;20692;-74
2022/12/25 02:36:02;;;;;;;3.40;1.90;;;11.40;99.90;;;;;;7393384;19;20178;-75
2022/12/25 02:38:37;;;;;;;3.47;2.07;;;11.40;99.90;;;;;;7392325;19;20131;-74
2022/12/25 02:41:14;;;;;;;5.57;2.17;;;11.50;99.90;;;;;;7392616;19;20212;-74
2022/12/25 03:11:57;;;;;;;3.53;2.60;;;11.30;99.90;;;;;;7388981;19;20149;-73
2022/12/25 03:17:08;;;;;;;3.37;2.43;;;11.40;99.90;;;;;;7390826;19;20764;-75
2022/12/25 03:28:04;;;;;;;3.00;2.13;;;11.20;99.90;;;;;;7391328;19;20139;-75
2022/12/25 03:33:37;;;;;;;2.67;2.23;;;11.30;99.90;;;;;;7391233;19;20481;-74
2022/12/25 03:36:14;;;;;;;4.20;2.23;;;11.30;99.90;;;;;;7392615;19;20505;-73
2022/12/25 04:37:12;;;;;;;2.57;1.60;;;11.00;99.90;;;;;;7393280;19;20134;-75
2022/12/25 04:39:38;;;;;;;2.27;1.40;;;11.10;99.90;;;;;;7393627;19;20145;-73
2022/12/25 04:42:04;;;;;;;4.77;1.57;;;11.00;99.90;;;;;;7392468;19;20143;-73
2022/12/25 04:44:30;;;;;;;3.20;1.67;;;11.00;99.90;;;;;;7394091;19;20138;-74
2022/12/25 04:46:55;;;;;;;3.20;1.70;;;11.00;99.90;;;;;;7387672;19;20202;-73
2022/12/25 04:49:21;;;;;;;2.30;1.90;;;10.90;99.90;;;;;;7395987;19;20149;-74
2022/12/25 04:51:47;;;;;;;2.37;1.33;;;11.10;99.90;;;;;;7395159;19;20574;-74
2022/12/25 04:54:12;;;;;;;2.63;1.67;;;11.20;99.90;;;;;;7393044;19;20146;-73
2022/12/25 04:56:38;;;;;;;1.50;1.40;;;11.00;99.90;;;;;;7394025;19;20154;-74
2022/12/25 04:59:05;;;;;;;2.57;1.80;;;10.90;99.90;;;;;;7395421;19;20138;-73
2022/12/25 05:01:31;;;;;;;3.03;1.63;;;11.10;99.90;;;;;;7393234;19;20153;-73
2022/12/25 05:03:56;;;;;;;3.70;1.50;;;11.20;99.90;;;;;;7394117;19;20221;-73
2022/12/25 05:06:22;;;;;;;2.57;1.30;;;11.30;99.90;;;;;;7392697;19;20902;-74
2022/12/25 05:08:48;;;;;;;2.07;1.40;;;11.40;99.90;;;;;;7394133;19;20920;-74
2022/12/25 05:11:14;;;;;;;1.50;1.30;;;11.50;99.90;;;;;;7392278;19;20154;-73
2022/12/25 05:13:40;;;;;;;3.27;1.70;;;11.50;99.90;;;;;;7390346;19;20594;-74
2022/12/25 05:16:17;;;;;;;2.83;1.30;;;11.50;99.90;;;;;;7393330;19;20429;-74
2022/12/25 05:18:43;;;;;;;1.13;1.03;;;11.20;99.90;;;;;;7394286;19;20625;-73
2022/12/25 05:21:12;;;;;;;1.30;1.20;;;10.90;99.90;;;;;;7395136;19;20157;-73
2022/12/25 05:23:47;;;;;;;1.27;1.00;;;11.00;99.90;;;;;;7392440;19;20134;-73
2022/12/25 05:26:14;;;;;;;2.27;1.20;;;10.90;99.90;;;;;;7392057;19;20156;-74
2022/12/25 05:28:41;;;;;;;1.43;1.30;;;10.90;99.90;;;;;;7384911;19;20143;-74
2022/12/25 05:31:07;;;;;;;3.30;1.87;;;11.10;99.90;;;;;;7394693;19;20150;-73
2022/12/25 05:33:33;;;;;;;4.33;1.53;;;11.00;99.90;;;;;;7389933;19;20139;-74
2022/12/25 05:36:08;;;;;;;2.93;1.70;;;11.10;99.90;;;;;;7394149;19;20134;-74
2022/12/25 05:38:34;;;;;;;1.80;1.20;;;11.00;99.90;;;;;;7391525;19;20474;-74
2022/12/25 05:41:00;;;;;;;3.43;1.50;;;11.20;99.90;;;;;;7393883;19;20148;-74
2022/12/25 05:43:27;;;;;;;1.47;1.37;;;11.30;99.90;;;;;;7390948;19;20147;-74
2022/12/25 05:45:53;;;;;;;2.27;1.70;;;11.40;99.90;;;;;;7393261;19;20138;-74
2022/12/25 05:48:19;;;;;;;2.70;1.63;;;11.40;99.90;;;;;;7391736;19;20277;-72
2022/12/25 05:50:45;;;;;;;2.77;1.70;;;11.50;99.90;;;;;;7390494;19;20145;-73
2022/12/25 05:53:13;;;;;;;2.30;2.00;;;11.50;99.90;;;;;;7392058;19;20138;-74
2022/12/25 05:55:42;;;;;;;2.70;1.70;;;11.40;99.90;;;;;;7390778;19;20161;-74
2022/12/25 05:58:09;;;;;;;2.77;1.90;;;11.50;99.90;;;;;;7388977;19;20497;-74
2022/12/25 06:00:35;;;;;;;2.90;1.43;;;11.50;99.90;;;;;;7391280;19;20150;-74
2022/12/25 06:03:01;;;;;;;2.53;1.80;;;11.50;99.90;;;;;;7393529;19;20130;-74
2022/12/25 06:05:27;;;;;;;2.43;1.63;;;11.50;99.90;;;;;;7393758;19;20139;-74
2022/12/25 06:07:53;;;;;;;3.73;2.10;;;11.20;99.90;;;;;;7385815;19;20154;-74
2022/12/25 06:10:19;;;;;;;2.07;1.70;;;11.30;99.90;;;;;;7394426;19;20153;-74
2022/12/25 06:12:44;;;;;;;2.47;1.80;;;11.40;99.90;;;;;;7391774;19;20584;-74
2022/12/25 06:15:10;;;;;;;2.17;1.90;;;11.40;99.90;;;;;;7392340;19;20147;-74
2022/12/25 06:17:36;;;;;;;2.23;1.70;;;11.50;99.90;;;;;;7392279;19;20226;-75
2022/12/25 06:20:03;;;;;;;2.77;1.90;;;11.30;99.90;;;;;;7390737;19;20139;-74
2022/12/25 06:22:32;;;;;;;3.53;1.80;;;11.30;99.90;;;;;;7388927;19;20233;-75
2022/12/25 06:24:58;;;;;;;2.63;1.60;;;11.40;99.90;;;;;;7390780;19;20155;-75
2022/12/25 06:27:25;;;;;;;2.60;1.60;;;11.20;99.90;;;;;;7392541;19;20130;-75
2022/12/25 06:29:50;;;;;;;2.33;1.40;;;11.10;99.90;;;;;;7389208;19;20135;-74
2022/12/25 06:32:16;;;;;;;2.10;1.50;;;11.00;99.90;;;;;;7389954;19;20605;-73
2022/12/25 06:34:42;;;;;;;1.83;1.47;;;10.70;99.90;;;;;;7389167;19;20621;-74
2022/12/25 06:37:08;;;;;;;2.40;1.80;;;11.00;99.90;;;;;;7391387;19;20138;-75
2022/12/25 06:39:35;;;;;;;2.37;1.57;;;11.10;99.90;;;;;;7393099;19;20534;-74
2022/12/25 06:42:01;;;;;;;1.70;1.30;;;10.80;99.90;;;;;;7390701;19;20499;-73
2022/12/25 06:44:26;;;;;;;1.83;1.53;;;10.90;99.90;;;;;;7388828;19;20122;-73
2022/12/25 06:46:53;;;;;;;2.67;1.53;;;10.80;99.90;;;;;;7387887;19;20574;-74
2022/12/25 06:49:20;;;;;;;1.90;1.57;;;10.90;99.90;;;;;;7391288;19;20150;-74
2022/12/25 06:51:46;;;;;;;2.63;1.27;;;11.10;99.90;;;;;;7390233;19;20134;-73
2022/12/25 06:54:12;;;;;;;1.85;1.30;;;10.80;99.90;;;;;;7390413;19;20146;-74
2022/12/25 06:56:38;;;;;;;3.97;2.13;;;11.00;99.90;;;;;;7391352;19;20234;-74
2022/12/25 06:59:06;;;;;;;3.93;1.90;;;11.10;99.90;;;;;;7390139;19;20516;-72
2022/12/25 07:01:45;;;;;;;2.70;1.80;;;11.20;99.90;;;;;;7389584;19;20147;-74
2022/12/25 07:04:19;;;;;;;3.30;1.63;;;11.30;99.90;;;;;;7386570;19;20170;-74
2022/12/25 07:06:45;;;;;;;3.13;2.07;;;11.40;99.90;;;;;;7384681;19;20198;-73
2022/12/25 07:09:11;;;;;;;4.20;1.87;;;11.60;99.90;;;;;;7387305;19;20591;-73
2022/12/25 07:11:37;;;;;;;2.73;1.83;;;11.40;99.90;;;;;;7391178;19;20164;-74
2022/12/25 07:14:02;;;;;;;2.37;1.90;;;11.50;99.90;;;;;;7388390;19;20154;-75
2022/12/25 07:16:29;;;;;;;2.63;2.00;;;11.50;99.90;;;;;;7390414;19;20139;-74
2022/12/25 07:18:55;;;;;;;2.70;2.00;;;11.50;99.90;;;;;;7394924;19;20587;-74
2022/12/25 07:21:21;;;;;;;2.30;2.10;;;11.50;99.90;;;;;;7397304;19;20157;-73
2022/12/25 07:23:48;;;;;;;3.13;1.83;;;11.50;99.90;;;;;;7397057;19;20142;-74
2022/12/25 07:26:16;;;;;;;3.30;1.90;;;11.20;99.90;;;;;;7394065;19;20146;-74
2022/12/25 07:28:42;;;;;;;2.40;1.70;;;11.20;99.90;;;;;;7396623;19;20624;-74
2022/12/25 07:31:13;;;;;;;2.20;1.70;;;11.30;99.90;;;;;;7397560;19;20146;-74
2022/12/25 07:33:39;;;;;;;2.60;1.90;;;11.10;99.90;;;;;;7395038;19;20142;-74
2022/12/25 07:36:06;;;;;;;1.80;1.67;;;10.90;99.90;;;;;;7396114;19;20135;-73
2022/12/25 07:38:32;;;;;;;2.00;1.67;;;11.00;99.90;;;;;;7395078;19;20168;-74
2022/12/25 07:40:58;;;;;;;1.97;1.70;;;11.20;99.90;;;;;;7396171;19;20139;-74
2022/12/25 07:43:24;;;;;;;3.63;2.20;;;11.20;99.90;;;;;;7395587;19;20607;-73
2022/12/25 07:45:55;;;;;;;3.07;2.10;;;10.90;99.90;;;;;;7392625;19;20146;-74
2022/12/25 07:48:21;;;;;;;3.87;2.50;;;11.00;99.90;;;;;;7394166;19;20146;-74
2022/12/25 07:50:47;;;;;;;3.50;2.33;;;10.90;99.90;;;;;;7393171;19;20154;-74
2022/12/25 07:53:13;;;;;;;3.43;1.97;;;10.90;99.90;;;;;;7393185;19;20600;-74
2022/12/25 07:55:38;;;;;;;3.77;1.83;;;11.10;99.90;;;;;;7393685;19;20783;-74
2022/12/25 07:58:04;;;;;;;4.93;2.33;;;11.10;99.90;;;;;;7393063;19;20809;-75
2022/12/25 08:00:31;;;;;;;2.20;2.00;;;11.30;99.90;;;;;;7392580;19;20146;-74
2022/12/25 08:02:58;;;;;;;5.43;2.27;;;11.40;99.90;;;;;;7394497;19;20163;-75
2022/12/25 08:05:23;;;;;;;4.10;2.67;;;11.40;99.90;;;;;;7390294;19;20198;-75
2022/12/25 08:07:54;;;;;;;4.63;2.40;;;11.40;99.90;;;;;;7393920;19;20143;-74
2022/12/25 08:10:20;;;;;;;3.30;2.27;;;11.50;99.90;;;;;;7392639;19;20139;-73
2022/12/25 08:12:46;;;;;;;5.00;2.27;;;11.70;99.90;;;;;;7394992;19;20146;-74
2022/12/25 08:15:12;;;;;;;3.57;2.27;;;11.50;99.90;;;;;;7395079;19;20342;-74
2022/12/25 08:17:38;;;;;;;2.33;2.10;;;11.40;99.90;;;;;;7392528;19;20135;-73
2022/12/25 08:20:05;;;;;;;3.30;2.00;;;11.40;99.90;;;;;;7394956;19;20493;-74
2022/12/25 08:22:30;;;;;;;3.00;1.80;;;11.50;99.90;;;;;;7391172;19;20150;-74
2022/12/25 08:24:56;;;;;;;2.50;1.87;;;11.00;99.90;;;;;;7392798;19;20141;-74
2022/12/25 08:27:23;;;;;;;3.53;2.37;;;10.90;99.90;;;;;;7391837;19;20131;-74
2022/12/25 08:29:49;;;;;;;2.90;2.10;;;11.00;99.90;;;;;;7390879;19;20583;-73
2022/12/25 08:32:14;;;;;;;1.90;1.70;;;11.20;99.90;;;;;;7394824;19;20131;-74
2022/12/25 08:34:40;;;;;;;1.90;1.70;;;11.10;99.90;;;;;;7388419;19;20137;-75
2022/12/25 08:37:07;;;;;;;3.20;2.33;;;10.70;99.90;;;;;;7391465;19;20202;-74
2022/12/25 08:39:33;;;;;;;6.83;3.33;;;10.70;99.90;;;;;;7393060;19;20135;-73
2022/12/25 08:41:58;;;;;;;7.37;3.43;;;10.60;99.90;;;;;;7391745;19;20141;-73
2022/12/25 08:44:24;;;;;;;4.60;2.67;;;10.70;99.90;;;;;;7388978;19;20127;-74
2022/12/25 08:46:50;;;;;;;3.53;2.30;;;11.00;99.90;;;;;;7390851;19;20563;-72
2022/12/25 08:49:16;;;;;;;2.67;1.90;;;11.20;99.90;;;;;;7391645;19;20131;-73
2022/12/25 08:51:44;;;;;;;3.60;2.20;;;11.40;99.90;;;;;;7391409;19;20149;-77
2022/12/25 08:54:09;;;;;;;2.27;1.83;;;11.50;99.90;;;;;;7394631;19;20604;-75
2022/12/25 08:56:35;;;;;;;3.63;2.10;;;11.50;99.90;;;;;;7395947;19;20123;-74
2022/12/25 08:59:01;;;;;;;4.77;1.80;;;11.30;99.90;;;;;;7393689;19;20131;-73
2022/12/25 09:01:27;;;;;;;1.90;1.50;;;11.30;99.90;;;;;;7394078;19;20138;-73
2022/12/25 09:03:53;;;;;;;2.30;1.70;;;11.40;99.90;;;;;;7389835;19;20655;-74
2022/12/25 09:06:19;;;;;;;3.50;2.60;;;11.30;99.90;;;;;;7384509;19;20145;-75
2022/12/25 09:08:44;;;;;;;2.70;2.20;;;11.20;99.90;;;;;;7391269;19;20131;-74
2022/12/25 09:11:13;;;;;;;3.57;1.80;;;10.90;99.90;;;;;;7390994;19;20134;-73
2022/12/25 09:13:39;;;;;;;3.33;2.10;;;10.80;99.90;;;;;;7393963;19;20155;-75
2022/12/25 09:16:06;;;;;;;4.87;1.90;;;10.80;99.90;;;;;;7393569;19;20143;-75
2022/12/25 09:18:32;;;;;;;2.67;1.90;;;10.70;99.90;;;;;;7392732;19;20138;-74
2022/12/25 09:20:59;;;;;;;2.67;2.10;;;10.60;99.90;;;;;;7394900;19;20156;-75
2022/12/25 09:23:26;;;;;;;2.00;1.60;;;10.60;99.90;;;;;;7393905;19;20138;-75
2022/12/25 09:25:52;;;;;;;3.00;2.07;;;10.60;99.90;;;;;;7391348;19;20189;-74
2022/12/25 09:28:18;;;;;;;4.03;2.43;;;10.50;99.90;;;;;;7392831;19;20175;-75
2022/12/25 09:30:43;;;;;;;4.47;2.37;;;10.50;99.90;;;;;;7392897;19;20138;-75
2022/12/25 09:33:09;;;;;;;3.30;2.23;;;10.30;99.90;;;;;;7392343;19;20192;-74
2022/12/25 09:35:36;;;;;;;1.97;1.50;;;10.30;99.90;;;;;;7390439;19;20130;-74
2022/12/25 09:38:02;;;;;;;3.10;2.20;;;10.40;99.90;;;;;;7391805;19;20167;-75
2022/12/25 09:40:31;;;;;;;3.07;2.03;;;10.30;99.90;;;;;;7391725;19;20129;-76
2022/12/25 09:42:58;;;;;;;3.07;2.17;;;10.40;99.90;;;;;;7392893;19;20147;-75
2022/12/25 09:45:43;;;;;;;2.77;1.90;;;10.40;99.90;;;;;;7391906;19;20141;-76
2022/12/25 09:48:13;;;;;;;3.35;2.00;;;10.30;99.90;;;;;;7391043;19;20146;-75
2022/12/25 09:51:02;;;;;;;3.50;2.30;;;10.40;99.90;;;;;;7391954;19;20131;-74
2022/12/25 09:53:36;;;;;;;2.97;2.20;;;10.70;99.90;;;;;;7391281;19;20158;-74
2022/12/25 09:56:11;;;;;;;2.53;1.80;;;10.30;99.90;;;;;;7394046;19;20130;-75
2022/12/25 09:58:37;;;;;;;3.07;2.00;;;10.30;99.90;;;;;;7393462;19;20152;-74
2022/12/25 10:01:33;;;;;;;2.70;2.03;;;10.30;99.90;;;;;;7391884;19;20206;-74
2022/12/25 10:04:49;;;;;;;4.13;2.67;;;10.40;99.90;;;;;;7392378;19;20154;-75
2022/12/25 10:07:35;;;;;;;2.63;2.00;;;10.40;99.90;;;;;;7387427;19;20773;-77
2022/12/25 10:10:12;;;;;;;3.20;2.57;;;10.40;99.90;;;;;;7389078;19;20171;-72
2022/12/25 10:12:48;;;;;;;5.70;2.17;;;10.30;99.90;;;;;;7390449;19;20137;-72
2022/12/25 10:15:21;;;;;;;2.10;1.83;;;10.30;99.90;;;;;;7392855;19;20205;-72
2022/12/25 10:18:17;;;;;;;2.23;2.00;;;10.50;99.90;;;;;;7391693;19;20157;-73
2022/12/25 10:20:56;;;;;;;5.50;3.40;;;10.60;99.90;;;;;;7392335;19;20153;-73
2022/12/25 10:23:28;;;;;;;4.33;3.33;;;10.70;99.90;;;;;;7386312;19;20146;-72
2022/12/25 10:25:54;;;;;;;6.33;3.53;;;10.70;99.90;;;;;;7388117;19;20138;-73
2022/12/25 10:28:33;;;;;;;2.83;2.33;;;10.80;99.90;;;;;;7388754;19;20130;-71
2022/12/25 10:31:04;;;;;;;4.57;2.80;;;10.90;99.90;;;;;;7387385;19;20211;-71
2022/12/25 10:33:30;;;;;;;3.83;2.67;;;11.10;99.90;;;;;;7387072;19;20140;-71
2022/12/25 10:35:55;;;;;;;3.40;2.47;;;11.40;99.90;;;;;;7390254;19;20223;-72
2022/12/25 10:38:21;;;;;;;4.82;2.88;;;11.50;99.90;;;;;;7389728;19;20150;-73
2022/12/25 10:41:05;;;;;;;5.00;2.90;;;11.70;99.90;;;;;;7390459;19;20133;-72
2022/12/25 10:43:46;;;;;;;3.93;2.90;;;11.70;99.90;;;;;;7388105;19;20134;-73
2022/12/25 10:46:14;;;;;;;3.30;2.73;;;11.90;99.90;;;;;;7386643;19;20150;-73
2022/12/25 10:48:53;;;;;;;3.73;2.37;;;12.10;99.90;;;;;;7387032;19;20151;-73
2022/12/25 10:51:37;;;;;;;4.07;2.30;;;12.30;99.90;;;;;;7387804;19;20245;-72
2022/12/25 10:54:18;;;;;;;3.07;1.93;;;12.40;99.90;;;;;;7386924;19;20134;-74
2022/12/25 10:56:56;;;;;;;2.00;1.80;;;12.50;99.90;;;;;;7386203;19;20138;-73
2022/12/25 10:59:23;;;;;;;3.30;2.60;;;12.60;99.90;;;;;;7386368;19;20602;-73
2022/12/25 11:01:49;;;;;;;3.33;2.67;;;12.40;99.90;;;;;;7387909;19;20135;-74
2022/12/25 11:04:28;;;;;;;3.08;2.15;;;12.40;99.90;;;;;;7384874;19;20150;-73
2022/12/25 11:07:14;;;;;;;4.10;2.13;;;12.30;99.90;;;;;;7386883;19;20594;-73
2022/12/25 11:09:47;;;;;;;3.17;2.10;;;12.20;99.90;;;;;;7390172;19;20137;-74
2022/12/25 11:12:18;;;;;;;2.53;2.23;;;12.10;99.90;;;;;;7388227;19;20123;-75
2022/12/25 11:14:56;;;;;;;5.03;1.70;;;12.10;99.90;;;;;;7389908;19;20157;-74
2022/12/25 11:17:25;;;;;;;4.85;2.40;;;12.10;99.90;;;;;;7390333;19;20131;-73
2022/12/25 11:19:56;;;;;;;3.60;2.93;;;12.10;99.90;;;;;;7386725;19;20214;-74
2022/12/25 11:22:22;;;;;;;3.33;2.60;;;12.00;99.90;;;;;;7389083;19;20201;-75
2022/12/25 11:24:48;;;;;;;2.45;2.10;;;12.30;99.90;;;;;;7388559;19;20547;-74
2022/12/25 11:27:28;;;;;;;4.00;2.27;;;12.30;99.90;;;;;;7385082;19;20133;-74
2022/12/25 11:30:02;;;;;;;2.60;2.27;;;12.30;99.90;;;;;;7386742;19;20142;-74
2022/12/25 11:32:36;;;;;;;4.67;3.50;;;12.30;99.90;;;;;;7386839;19;20138;-74
2022/12/25 11:35:05;;;;;;;3.85;3.10;;;12.50;99.90;;;;;;7388946;19;20139;-74
2022/12/25 11:37:49;;;;;;;3.88;2.90;;;12.50;99.90;;;;;;7388361;19;20134;-74
2022/12/25 11:40:28;;;;;;;5.73;3.00;;;12.60;99.90;;;;;;7380694;19;20139;-75
2022/12/25 11:43:01;;;;;;;6.40;5.13;;;12.60;99.90;;;;;;7384256;19;20150;-73
2022/12/25 11:45:36;;;;;;;4.57;3.00;;;12.80;99.90;;;;;;7386921;19;20135;-75
2022/12/25 11:48:18;;;;;;;4.72;3.75;;;12.80;99.90;;;;;;7385388;19;20127;-74
2022/12/25 11:50:58;;;;;;;2.60;2.40;;;12.90;99.90;;;;;;7388272;19;20172;-74
2022/12/25 11:53:46;;;;;;;3.20;2.80;;;13.00;99.90;;;;;;7387272;19;20149;-75
2022/12/25 11:56:21;;;;;;;3.63;2.40;;;13.30;99.90;;;;;;7389737;19;20139;-73
2022/12/25 11:58:58;;;;;;;2.63;2.03;;;13.40;99.90;;;;;;7389533;19;20499;-74
2022/12/25 12:01:42;;;;;;;2.63;1.92;;;13.70;99.90;;;;;;7387796;19;20217;-74
2022/12/25 12:04:26;;;;;;;3.75;2.22;;;14.00;99.90;;;;;;7386764;19;20154;-72
2022/12/25 12:07:17;;;;;;;3.75;1.90;;;14.00;99.90;;;;;;7391436;19;20154;-72
2022/12/25 12:09:57;;;;;;;4.05;2.17;;;14.00;99.90;;;;;;7391467;19;20141;-72
2022/12/25 12:12:51;;;;;;;4.40;2.60;;;14.10;99.90;;;;;;7392745;19;20269;-72
2022/12/25 12:15:26;;;;;;;3.50;2.30;;;14.20;99.90;;;;;;7392352;19;20142;-71
2022/12/25 12:17:51;;;;;;;3.33;2.38;;;14.40;99.90;;;;;;7394346;19;20137;-73
2022/12/25 12:20:30;;;;;;;3.20;2.15;;;14.30;99.90;;;;;;7392047;19;20135;-74
2022/12/25 12:22:57;;;;;;;3.95;2.50;;;14.40;99.90;;;;;;7392078;19;20135;-72
2022/12/25 12:25:22;;;;;;;4.47;2.45;;;14.40;99.90;;;;;;7390043;19;20606;-72
2022/12/25 12:27:59;;;;;;;3.78;2.47;;;14.40;99.90;;;;;;7389569;19;20141;-74
2022/12/25 12:30:33;;;;;;;2.65;1.92;;;14.40;99.90;;;;;;7392260;19;20138;-72
2022/12/25 12:33:02;;;;;;;4.05;2.00;;;14.50;99.90;;;;;;7392367;19;20147;-73
2022/12/25 12:35:39;;;;;;;4.53;3.75;;;14.50;99.90;;;;;;7393063;19;20601;-74
2022/12/25 12:38:17;;;;;;;3.90;2.15;;;14.40;99.90;;;;;;7389301;19;20567;-73
2022/12/25 12:41:00;;;;;;;2.72;1.83;;;14.20;99.90;;;;;;7393936;19;20146;-73
2022/12/25 12:43:29;;;;;;;3.85;2.53;;;14.10;99.90;;;;;;7390481;19;20158;-73
2022/12/25 12:46:19;;;;;;;2.67;2.20;;;14.00;99.90;;;;;;7391247;19;20134;-73
2022/12/25 12:48:48;;;;;;;1.92;1.67;;;14.10;99.90;;;;;;7388818;19;20161;-72
2022/12/25 12:51:31;;;;;;;2.83;2.20;;;14.10;99.90;;;;;;7392213;19;20126;-74
2022/12/25 12:54:20;;;;;;;3.38;2.10;;;14.20;99.90;;;;;;7381223;19;20134;-75
2022/12/25 12:56:58;;;;;;;3.05;2.10;;;14.40;99.90;;;;;;7392067;19;20154;-75
2022/12/25 12:59:25;;;;;;;2.40;1.90;;;14.50;99.90;;;;;;7394716;19;20142;-74
2022/12/25 13:02:03;;;;;;;2.58;1.98;;;14.60;99.90;;;;;;7393663;19;20657;-75
2022/12/25 13:04:58;;;;;;;1.45;1.17;;;14.80;99.90;;;;;;7391263;19;20217;-75
2022/12/25 13:07:34;;;;;;;2.60;1.80;;;14.90;99.90;;;;;;7393188;19;20177;-74
2022/12/25 13:10:25;;;;;;;2.42;1.65;;;15.00;99.90;;;;;;7387758;19;20164;-75
2022/12/25 13:12:58;;;;;;;2.28;1.77;;;15.00;99.90;;;;;;7391967;19;20154;-74
2022/12/25 13:15:29;;;;;;;5.28;1.90;;;15.00;99.90;;;;;;7393146;19;20134;-75
2022/12/25 13:18:00;;;;;;;3.05;2.17;;;15.00;99.90;;;;;;7394917;19;20157;-78
2022/12/25 13:20:43;;;;;;;31.67;21.98;;;15.30;99.90;;;;;;7393652;19;20141;-73
2022/12/25 13:23:25;;;;;;;30.77;20.73;;;15.30;99.90;;;;;;7392960;19;20135;-72
2022/12/25 13:26:04;;;;;;;15.40;10.45;;;15.30;99.90;;;;;;7378606;19;20155;-75
2022/12/25 13:28:35;;;;;;;17.73;13.38;;;15.30;99.90;;;;;;7391534;19;20158;-77
2022/12/25 13:31:16;;;;;;;7.75;5.75;;;15.30;99.90;;;;;;7383801;19;20151;-78
2022/12/25 13:33:54;;;;;;;4.63;3.65;;;15.20;99.90;;;;;;7392075;19;20149;-80
2022/12/25 13:36:20;;;;;;;4.00;2.60;;;15.10;99.90;;;;;;7387321;19;20138;-74
2022/12/25 13:38:49;;;;;;;3.20;2.13;;;15.00;99.90;;;;;;7387985;19;20175;-74
2022/12/25 13:44:25;;;;;;;2.83;2.40;;;14.90;99.90;;;;;;7392303;19;20481;-75
2022/12/25 13:46:51;;;;;;;3.08;2.30;;;14.70;99.90;;;;;;7390263;19;20167;-72
2022/12/25 13:49:19;;;;;;;3.35;2.53;;;14.70;99.90;;;;;;7392781;19;20163;-73
2022/12/25 13:51:45;;;;;;;2.55;2.00;;;14.70;99.90;;;;;;7392470;19;20138;-73
2022/12/25 13:54:13;;;;;;;6.32;2.65;;;14.60;99.90;;;;;;7391357;19;20264;-75
2022/12/25 13:56:52;;;;;;;3.70;2.53;;;14.50;99.90;;;;;;7392575;19;20151;-75
2022/12/25 13:59:26;;;;;;;4.60;2.25;;;14.30;99.90;;;;;;7391468;19;20134;-74
2022/12/25 14:01:56;;;;;;;10.52;6.90;;;14.30;99.90;;;;;;7392106;19;20647;-75
2022/12/25 14:04:26;;;;;;;4.45;3.00;;;14.20;99.90;;;;;;7391607;19;20151;-75
2022/12/25 14:06:51;;;;;;;4.03;2.58;;;14.00;99.90;;;;;;7391091;19;20134;-73
2022/12/25 14:09:18;;;;;;;6.45;3.42;;;14.00;99.90;;;;;;7392362;19;20135;-74
2022/12/25 14:11:50;;;;;;;5.13;3.25;;;13.80;99.90;;;;;;7392497;19;20842;-75
2022/12/25 14:14:23;;;;;;;2.97;2.00;;;13.90;99.90;;;;;;7391342;19;20147;-73
2022/12/25 14:16:52;;;;;;;3.00;2.05;;;14.00;99.90;;;;;;7391507;19;20158;-76
2022/12/25 14:19:25;;;;;;;19.33;13.90;;;13.90;99.90;;;;;;7392415;19;20147;-78
2022/12/25 14:21:57;;;;;;;128.70;82.93;;;14.00;99.90;;;;;;7393495;19;20146;-74
2022/12/25 14:24:25;;;;;;;77.60;53.28;;;14.00;99.90;;;;;;7392272;19;20150;-74
2022/12/25 14:27:27;;;;;;;7.57;6.32;;;14.00;99.90;;;;;;7390522;19;20130;-75
2022/12/25 14:29:57;;;;;;;1.65;1.40;;;14.00;99.90;;;;;;7390254;19;20134;-73
2022/12/25 14:32:30;;;;;;;4.25;1.40;;;13.90;99.90;;;;;;7387051;19;20142;-74
2022/12/25 14:35:02;;;;;;;1.58;1.33;;;13.90;99.90;;;;;;7390460;19;20571;-75
2022/12/25 14:37:30;;;;;;;1.33;1.02;;;13.90;99.90;;;;;;7392181;19;20173;-74
2022/12/25 14:40:02;;;;;;;1.58;1.10;;;13.90;99.90;;;;;;7389637;19;20578;-74
2022/12/25 14:42:31;;;;;;;2.22;1.15;;;13.90;99.90;;;;;;7388321;19;20198;-74
2022/12/25 14:44:59;;;;;;;1.23;1.10;;;13.80;99.90;;;;;;7388936;19;20169;-75
2022/12/25 14:47:27;;;;;;;1.70;1.50;;;13.70;99.90;;;;;;7386231;19;20154;-74
2022/12/25 14:49:53;;;;;;;4.22;1.80;;;13.70;99.90;;;;;;7390402;19;20314;-75
2022/12/25 14:52:27;;;;;;;1.45;1.23;;;13.70;99.90;;;;;;7390020;19;20232;-75